Ljubljana, Slovenia

12:19 PM CET on januar 19, 2019 (GMT +0100)
Kocevje | | Change Station

Viš 991 ft 46.06 °N, 14.51 °E | Updated 8 seconds ago

Pretezno oblacno
Pretezno oblacno
32 °F
Feels Like 32 °F
N
0
Veter Spremenljivo Veter od JV
Gusts 0.0 mph

Danes
High -- | Low -- °F
--% Chance of Precip.
Yesterday
High -- | Low -- °F
Precip. -- v
Zračni tlak 30.06 v
Vidljivost 6.2 milje
Oblaki Few 1700 ft
Razprseni oblaki 2700 ft
Pretezno oblacno 4500 ft
Občutek zaradi vetra 32 °F
Rosišče 26 °F
Vlažnost 77%
Padavine 0.00 v
Snow Depth Not available.
7:37 AM 4:47 PM
Naraščajoča luna, 95% visible
METAR LJLJ 191100Z 36001KT 9999 FEW017 SCT027 BKN045 00/M04 Q1018 NOSIG
Zračni tlak 30.06 v
Vidljivost 6.2 milje
Oblaki Few 1700 ft
Razprseni oblaki 2700 ft
Pretezno oblacno 4500 ft
Občutek zaradi vetra 32 °F
Rosišče 26 °F
Vlažnost 77%
Padavine 0.00 v
Snow Depth Not available.
7:37 AM 4:47 PM
Naraščajoča luna, 95% visible
METAR LJLJ 191100Z 36001KT 9999 FEW017 SCT027 BKN045 00/M04 Q1018 NOSIG

Get Severe Weather Alerts

Thanks for signing up!

Be on the lookout for a verification email in your inbox.

You'll start receiving the daily forecast at 6 AM.

×

10-Day Weather Forecast

×

Almanac

Astronomija

Jan. 19, 2019 Rise Set
Actual Time
Civil Twilight
Nautical Twilight
Astronomical Twilight
Moon
Length Of Visible Light
Dolžina dneva
Tomorrow will be .
, % of the Moon is Illuminated

Današnji ekstremi

Country Highs Country Lows

Community

WunderPhotos

Category 6

Welcome to Category 6. This is the collective home for Weather Underground's featured writeups by Dr. Jeff Masters (right), Bob Henson (left), Chris Burt, and other regular contributors.

Nearby

Air Quality

  Air Quality AQ Index Pollutant
Not available.

Snow Depth

Station Depth Višina

Earthquake Activity

City Distance Mag. Time & Date
Minimum magnitude displayed is 2.5.

Coastal Water Temperatures

Mesto Temperatura

Stations

Nearby Weather Stations

Station Location Temp Občutek zaradi vetra Rosišče Vlažnost Veter Precip. Viš Obnovljeno Type